createdAt,value
2019-02-16T00:03:22.536Z,6.20
2019-02-16T00:08:24.889Z,6.57
2019-02-16T00:13:29.487Z,6.73
2019-02-16T00:18:33.731Z,6.87
2019-02-16T00:23:36.051Z,6.83
2019-02-16T00:28:39.564Z,7.13
2019-02-16T00:33:43.272Z,8.37
2019-02-16T00:38:45.444Z,12.83
2019-02-16T00:43:48.920Z,11.93
2019-02-16T00:48:53.017Z,9.70
2019-02-16T00:53:56.502Z,9.80
2019-02-16T00:58:58.678Z,8.50
2019-02-16T01:04:00.935Z,7.40
2019-02-16T01:09:04.724Z,7.67
2019-02-16T01:14:06.991Z,7.07
2019-02-16T01:19:09.200Z,6.97
2019-02-16T01:24:11.505Z,7.27
2019-02-16T01:29:13.860Z,7.07
2019-02-16T01:34:16.084Z,6.73
2019-02-16T01:39:20.596Z,6.67
2019-02-16T01:44:22.850Z,6.83
2019-02-16T01:49:25.073Z,6.00
2019-02-16T01:54:27.296Z,6.33
2019-02-16T01:59:29.546Z,5.77
2019-02-16T02:04:31.756Z,6.47
2019-02-16T02:09:34.058Z,6.03
2019-02-16T02:14:36.419Z,5.77
2019-02-16T02:19:38.677Z,6.23
2019-02-16T02:24:42.741Z,5.67
2019-02-16T02:29:44.913Z,6.00
2019-02-16T02:34:48.299Z,6.00
2019-02-16T02:39:52.421Z,5.70
2019-02-16T02:44:54.621Z,6.43
2019-02-16T02:49:56.899Z,5.43
2019-02-16T02:54:59.098Z,5.50
2019-02-16T03:00:01.421Z,5.07
2019-02-16T03:05:04.706Z,5.67
2019-02-16T03:10:08.163Z,5.33
2019-02-16T03:15:14.546Z,5.53
2019-02-16T03:20:16.756Z,5.30
2019-02-16T03:25:19.013Z,5.57
2019-02-16T03:30:40.288Z,5.33
2019-02-16T03:36:30.637Z,5.20
2019-02-16T03:41:32.946Z,5.60
2019-02-16T03:46:35.289Z,5.10
2019-02-16T03:51:39.356Z,5.17
2019-02-16T03:56:41.652Z,5.70
2019-02-16T04:01:43.977Z,5.20
2019-02-16T04:06:46.344Z,5.20
2019-02-16T04:11:48.601Z,5.40
2019-02-16T04:16:50.935Z,5.17
2019-02-16T04:21:53.251Z,5.00
2019-02-16T04:26:55.589Z,5.00
2019-02-16T04:31:57.770Z,5.17
2019-02-16T04:36:59.946Z,4.10
2019-02-16T04:42:02.116Z,5.20
2019-02-16T04:47:04.425Z,4.60
2019-02-16T04:52:06.723Z,4.70
2019-02-16T04:57:10.022Z,4.50
2019-02-16T05:02:12.233Z,5.17
2019-02-16T05:07:14.460Z,4.10
2019-02-16T05:12:16.719Z,4.53
2019-02-16T05:17:18.981Z,4.40
2019-02-16T05:22:21.247Z,4.10
2019-02-16T05:27:23.570Z,4.10
2019-02-16T05:32:25.903Z,4.40
2019-02-16T05:37:30.598Z,4.43
2019-02-16T05:42:33.030Z,4.13
2019-02-16T05:47:37.105Z,4.83
2019-02-16T05:52:39.338Z,4.20
2019-02-16T05:57:44.283Z,4.10
2019-02-16T06:02:48.518Z,4.13
2019-02-16T06:07:50.834Z,4.37
2019-02-16T06:12:54.265Z,4.57
2019-02-16T06:17:56.870Z,5.43
2019-02-16T06:23:04.410Z,4.60
2019-02-16T06:28:04.897Z,4.20
2019-02-16T06:33:08.958Z,3.90
2019-02-16T06:38:12.481Z,4.53
2019-02-16T06:43:14.557Z,4.00
2019-02-16T06:48:22.319Z,5.33
2019-02-16T06:53:24.581Z,4.47
2019-02-16T06:58:29.177Z,4.43
2019-02-16T07:03:31.396Z,4.27
2019-02-16T07:08:33.654Z,4.40
2019-02-16T07:13:38.791Z,3.93
2019-02-16T07:18:48.212Z,3.97
2019-02-16T07:23:52.236Z,4.57
2019-02-16T07:28:54.460Z,4.10
2019-02-16T07:33:57.070Z,4.00
2019-02-16T07:39:01.769Z,3.70
2019-02-16T07:44:30.170Z,3.73
2019-02-16T07:49:42.290Z,3.40
2019-02-16T07:54:53.509Z,3.53
2019-02-16T08:00:12.474Z,3.37
2019-02-16T08:05:30.957Z,3.30
2019-02-16T08:10:52.992Z,2.87
2019-02-16T08:16:32.792Z,3.07
2019-02-16T08:21:39.881Z,3.00
2019-02-16T08:27:01.751Z,2.93
2019-02-16T08:32:29.124Z,2.73
2019-02-16T08:37:52.436Z,2.77
2019-02-16T08:43:15.400Z,2.60
2019-02-16T08:48:40.129Z,2.33
2019-02-16T08:54:09.350Z,1.87
2019-02-16T08:59:34.188Z,1.73
2019-02-16T09:04:49.230Z,1.83
2019-02-16T09:10:09.953Z,2.07
2019-02-16T09:15:31.911Z,2.00
2019-02-16T09:20:52.544Z,2.17
2019-02-16T09:26:20.511Z,2.60
2019-02-16T09:31:40.682Z,2.43
2019-02-16T09:37:00.136Z,2.20
2019-02-16T09:42:17.182Z,1.87
2019-02-16T09:47:37.659Z,1.93
2019-02-16T09:52:58.152Z,2.10
2019-02-16T09:58:16.977Z,1.80
2019-02-16T10:03:38.868Z,1.57
2019-02-16T10:08:58.991Z,1.80
2019-02-16T10:14:16.281Z,1.57
2019-02-16T10:19:45.002Z,1.63
2019-02-16T10:25:11.833Z,1.60
2019-02-16T10:30:34.956Z,1.40
2019-02-16T10:35:48.937Z,1.50
2019-02-16T10:41:13.662Z,1.43
2019-02-16T10:46:34.050Z,1.50
2019-02-16T10:52:01.372Z,1.20
2019-02-16T10:57:23.250Z,1.43
2019-02-16T11:02:43.926Z,1.80
2019-02-16T11:07:52.668Z,1.50
2019-02-16T11:13:31.595Z,1.53
2019-02-16T11:18:48.805Z,1.67
2019-02-16T11:24:21.593Z,1.50
2019-02-16T11:29:43.351Z,1.53
2019-02-16T11:35:10.917Z,1.27
2019-02-16T11:40:29.334Z,1.70
2019-02-16T11:45:42.711Z,1.50
2019-02-16T11:50:54.059Z,1.50
2019-02-16T11:56:18.921Z,1.30
2019-02-16T12:01:30.252Z,1.20
2019-02-16T12:06:42.164Z,1.27
2019-02-16T12:11:54.505Z,1.80
2019-02-16T12:17:16.290Z,1.33
2019-02-16T12:22:44.251Z,0.90
2019-02-16T12:28:12.653Z,1.30
2019-02-16T12:33:26.298Z,1.43
2019-02-16T12:38:54.339Z,1.30
2019-02-16T12:44:16.187Z,1.33
2019-02-16T12:49:38.100Z,1.17
2019-02-16T12:54:54.261Z,1.70
2019-02-16T13:00:05.658Z,1.40
2019-02-16T13:05:25.970Z,1.20
2019-02-16T13:10:46.813Z,1.60
2019-02-16T13:16:16.879Z,1.17
2019-02-16T13:21:38.673Z,1.20
2019-02-16T13:26:51.021Z,1.40
2019-02-16T13:32:27.771Z,1.17
2019-02-16T13:37:41.434Z,1.07
2019-02-16T13:43:06.292Z,1.13
2019-02-16T13:48:22.963Z,1.00
2019-02-16T13:53:41.915Z,1.00
2019-02-16T13:59:09.592Z,1.90
2019-02-16T14:04:37.911Z,1.60
2019-02-16T14:09:49.895Z,1.27
2019-02-16T14:15:00.750Z,1.23
2019-02-16T14:20:03.096Z,1.40
2019-02-16T14:25:10.400Z,1.07
2019-02-16T14:30:13.554Z,1.50
2019-02-16T14:35:16.855Z,1.27
2019-02-16T14:40:20.965Z,2.50
2019-02-16T14:45:25.204Z,1.43
2019-02-16T14:50:29.046Z,1.27
2019-02-16T14:55:36.301Z,1.07
2019-02-16T15:00:42.057Z,1.77
2019-02-16T15:05:50.375Z,1.37
2019-02-16T15:10:53.723Z,1.60
2019-02-16T15:16:00.270Z,1.10
2019-02-16T15:21:02.835Z,1.50
2019-02-16T15:26:06.224Z,1.60
2019-02-16T15:31:08.489Z,2.07
2019-02-16T15:36:10.805Z,2.10
2019-02-16T15:41:12.931Z,2.30
2019-02-16T15:46:16.944Z,2.50
2019-02-16T15:51:19.237Z,2.07
2019-02-16T15:56:21.792Z,2.00
2019-02-16T16:01:24.195Z,2.43
2019-02-16T16:06:26.525Z,2.67
2019-02-16T16:11:40.629Z,2.17
2019-02-16T16:17:06.784Z,2.07
2019-02-16T16:22:28.680Z,2.23
2019-02-16T16:28:00.450Z,2.23
2019-02-16T16:33:10.451Z,2.13
2019-02-16T16:38:47.277Z,3.37
2019-02-16T16:44:12.850Z,2.97
2019-02-16T16:49:36.884Z,3.10
2019-02-16T16:54:59.178Z,3.30
2019-02-16T17:00:09.001Z,3.33
2019-02-16T17:05:49.144Z,3.10
2019-02-16T17:11:12.835Z,3.70
2019-02-16T17:16:22.524Z,4.00
2019-02-16T17:21:36.348Z,4.23
2019-02-16T17:26:46.845Z,4.43
2019-02-16T17:31:59.292Z,4.30
2019-02-16T17:37:21.157Z,4.57
2019-02-16T17:43:01.047Z,4.67
2019-02-16T17:48:25.896Z,5.43
2019-02-16T17:53:46.300Z,5.17
2019-02-16T17:59:08.095Z,4.87
2019-02-16T18:04:25.203Z,7.07
2019-02-16T18:09:44.982Z,7.23
2019-02-16T18:15:15.806Z,6.87
2019-02-16T18:20:40.530Z,6.63
2019-02-16T18:25:55.924Z,7.77
2019-02-16T18:31:16.812Z,16.30
2019-02-16T18:36:37.114Z,8.67
2019-02-16T18:41:48.760Z,8.90
2019-02-16T18:47:09.578Z,10.23
2019-02-16T18:52:49.659Z,9.60
2019-02-16T18:58:12.480Z,9.00
2019-02-16T19:03:49.917Z,10.13
2019-02-16T19:09:14.916Z,11.50
2019-02-16T19:14:55.058Z,11.07
2019-02-16T19:20:29.283Z,11.17
2019-02-16T19:25:50.000Z,10.30
2019-02-16T19:31:11.901Z,11.00
2019-02-16T19:36:27.949Z,10.97
2019-02-16T19:41:49.066Z,9.30
2019-02-16T19:47:09.888Z,8.40
2019-02-16T19:52:22.417Z,8.60
2019-02-16T19:57:46.237Z,8.73
2019-02-16T20:03:01.458Z,8.97
2019-02-16T20:08:38.420Z,7.67
2019-02-16T20:14:02.887Z,7.53
2019-02-16T20:19:30.765Z,7.73
2019-02-16T20:24:55.987Z,7.83
2019-02-16T20:30:15.732Z,8.17
2019-02-16T20:35:43.339Z,7.13
2019-02-16T20:41:17.135Z,7.17
2019-02-16T20:46:30.108Z,6.20
2019-02-16T20:51:58.923Z,6.77
2019-02-16T20:57:47.634Z,6.00
2019-02-16T21:03:20.497Z,6.83
2019-02-16T21:08:57.552Z,6.30
2019-02-16T21:14:35.925Z,7.03
2019-02-16T21:19:59.525Z,6.90
2019-02-16T21:25:27.259Z,7.17
2019-02-16T21:31:07.994Z,7.43
2019-02-16T21:36:31.811Z,6.70
2019-02-16T21:41:46.574Z,6.93
2019-02-16T21:47:24.126Z,7.57
2019-02-16T21:52:49.561Z,8.37
2019-02-16T21:58:20.225Z,8.13
2019-02-16T22:03:49.890Z,7.23
2019-02-16T22:09:10.281Z,7.03
2019-02-16T22:14:14.442Z,7.37
2019-02-16T22:19:16.769Z,7.43
2019-02-16T22:24:18.991Z,7.93
2019-02-16T22:29:21.292Z,8.27
2019-02-16T22:34:23.746Z,7.27
2019-02-16T22:39:29.024Z,8.00
2019-02-16T22:44:33.339Z,7.37
2019-02-16T22:49:35.645Z,6.80
2019-02-16T22:54:37.962Z,6.63
2019-02-16T22:59:40.307Z,7.07
2019-02-16T23:04:42.609Z,6.87
2019-02-16T23:09:45.061Z,6.33
2019-02-16T23:14:47.409Z,6.77
2019-02-16T23:19:49.661Z,6.30
2019-02-16T23:24:51.972Z,7.40
2019-02-16T23:29:58.760Z,6.67
2019-02-16T23:35:01.265Z,6.60
2019-02-16T23:40:04.074Z,6.87
2019-02-16T23:45:07.996Z,6.90
2019-02-16T23:50:12.094Z,6.83
2019-02-16T23:55:14.332Z,6.63
